createdAt,value
2023-02-17T00:01:14.464Z,67.74
2023-02-17T00:03:48.305Z,66.90
2023-02-17T00:06:24.651Z,65.60
2023-02-17T00:08:58.167Z,65.38
2023-02-17T00:11:32.640Z,65.10
2023-02-17T00:14:05.782Z,64.19
2023-02-17T00:16:38.771Z,62.93
2023-02-17T00:19:26.377Z,62.16
2023-02-17T00:22:01.321Z,61.90
2023-02-17T00:24:38.901Z,61.43
2023-02-17T00:27:13.247Z,61.40
2023-02-17T00:29:46.456Z,61.30
2023-02-17T00:32:19.541Z,59.78
2023-02-17T00:34:55.441Z,60.14
2023-02-17T00:37:28.426Z,60.18
2023-02-17T00:40:01.503Z,61.38
2023-02-17T00:42:35.922Z,61.48
2023-02-17T00:45:10.241Z,60.84
2023-02-17T00:47:43.452Z,60.29
2023-02-17T00:50:16.660Z,60.85
2023-02-17T00:52:49.712Z,60.47
2023-02-17T00:55:22.739Z,61.71
2023-02-17T00:57:57.213Z,61.29
2023-02-17T01:00:30.343Z,61.16
2023-02-17T01:03:03.521Z,60.71
2023-02-17T01:05:42.451Z,60.87
2023-02-17T01:08:16.361Z,60.91
2023-02-17T01:10:50.873Z,60.98
2023-02-17T01:13:25.357Z,60.25
2023-02-17T01:15:58.739Z,60.52
2023-02-17T01:18:31.843Z,60.74
2023-02-17T01:21:05.136Z,61.40
2023-02-17T01:23:38.216Z,60.27
2023-02-17T01:26:15.751Z,60.01
2023-02-17T01:28:52.257Z,59.46
2023-02-17T01:31:27.849Z,58.89
2023-02-17T01:34:04.636Z,59.48
2023-02-17T01:36:37.713Z,59.37
2023-02-17T01:39:14.279Z,57.90
2023-02-17T01:41:47.654Z,59.24
2023-02-17T01:44:24.396Z,57.83
2023-02-17T01:46:57.679Z,57.68
2023-02-17T01:49:35.479Z,57.37
2023-02-17T01:52:16.108Z,57.42
2023-02-17T01:54:52.476Z,58.32
2023-02-17T01:57:31.859Z,57.70
2023-02-17T02:00:10.450Z,57.65
2023-02-17T02:02:49.265Z,57.57
2023-02-17T02:05:23.354Z,58.67
2023-02-17T02:07:56.715Z,58.60
2023-02-17T02:10:29.777Z,59.26
2023-02-17T02:13:02.961Z,59.39
2023-02-17T02:15:47.654Z,59.69
2023-02-17T02:18:45.576Z,58.71
2023-02-17T02:21:53.871Z,58.78
2023-02-17T02:24:40.004Z,59.47
2023-02-17T02:27:47.415Z,59.00
2023-02-17T02:30:51.379Z,59.98
2023-02-17T02:33:36.833Z,59.58
2023-02-17T02:36:15.845Z,59.34
2023-02-17T02:38:54.850Z,60.49
2023-02-17T02:41:32.823Z,60.15
2023-02-17T02:44:07.731Z,60.75
2023-02-17T02:46:41.277Z,59.15
2023-02-17T02:49:15.643Z,59.08
2023-02-17T02:51:55.793Z,59.25
2023-02-17T02:54:44.344Z,59.29
2023-02-17T02:57:34.544Z,59.70
2023-02-17T03:00:20.525Z,60.37
2023-02-17T03:02:59.954Z,60.02
2023-02-17T03:05:45.910Z,60.83
2023-02-17T03:08:25.588Z,60.57
2023-02-17T03:10:58.911Z,61.09
2023-02-17T03:13:37.925Z,61.59
2023-02-17T03:16:12.962Z,60.88
2023-02-17T03:18:46.058Z,61.43
2023-02-17T03:21:20.825Z,59.97
2023-02-17T03:23:53.903Z,60.68
2023-02-17T03:26:26.974Z,61.32
2023-02-17T03:29:00.154Z,62.21
2023-02-17T03:31:33.975Z,62.08
2023-02-17T03:34:07.387Z,62.24
2023-02-17T03:36:41.802Z,61.38
2023-02-17T03:39:14.868Z,61.60
2023-02-17T03:41:50.533Z,62.25
2023-02-17T03:44:23.633Z,60.62
2023-02-17T03:46:56.684Z,61.39
2023-02-17T03:49:29.974Z,61.58
2023-02-17T03:52:04.607Z,61.75
2023-02-17T03:54:38.640Z,61.95
2023-02-17T03:57:11.848Z,62.83
2023-02-17T03:59:45.528Z,63.03
2023-02-17T04:02:18.578Z,63.34
2023-02-17T04:04:51.638Z,62.86
2023-02-17T04:07:26.064Z,63.26
2023-02-17T04:09:59.121Z,63.01
2023-02-17T04:12:32.152Z,63.00
2023-02-17T04:15:05.750Z,63.39
2023-02-17T04:17:39.682Z,63.51
2023-02-17T04:20:14.146Z,63.64
2023-02-17T04:22:48.624Z,64.37
2023-02-17T04:25:21.694Z,65.19
2023-02-17T04:27:54.687Z,65.33
2023-02-17T04:30:27.968Z,65.02
2023-02-17T04:33:01.642Z,64.96
2023-02-17T04:35:34.692Z,65.18
2023-02-17T04:38:10.356Z,66.08
2023-02-17T04:40:44.348Z,65.39
2023-02-17T04:43:17.348Z,66.62
2023-02-17T04:45:50.597Z,66.52
2023-02-17T04:48:23.943Z,65.42
2023-02-17T04:50:57.003Z,64.89
2023-02-17T04:53:31.504Z,65.50
2023-02-17T04:56:05.380Z,66.18
2023-02-17T04:58:38.646Z,66.17
2023-02-17T05:01:11.892Z,65.42
2023-02-17T05:03:45.000Z,65.09
2023-02-17T05:06:18.034Z,64.78
2023-02-17T05:08:53.755Z,65.33
2023-02-17T05:11:26.987Z,65.51
2023-02-17T05:13:59.982Z,66.84
2023-02-17T05:16:33.253Z,65.56
2023-02-17T05:19:06.320Z,66.08
2023-02-17T05:21:39.626Z,66.20
2023-02-17T05:24:14.064Z,66.80
2023-02-17T05:26:47.193Z,67.71
2023-02-17T05:29:20.458Z,67.53
2023-02-17T05:31:53.543Z,67.53
2023-02-17T05:34:26.664Z,67.00
2023-02-17T05:36:59.831Z,67.16
2023-02-17T05:39:34.171Z,67.98
2023-02-17T05:42:07.344Z,67.90
2023-02-17T05:44:40.424Z,66.95
2023-02-17T05:47:13.500Z,68.32
2023-02-17T05:49:46.611Z,68.29
2023-02-17T05:52:19.777Z,68.28
2023-02-17T05:54:54.248Z,68.19
2023-02-17T05:57:27.601Z,68.04
2023-02-17T06:00:00.829Z,69.08
2023-02-17T06:02:33.902Z,69.12
2023-02-17T06:05:08.480Z,68.73
2023-02-17T06:07:41.646Z,68.06
2023-02-17T06:10:16.401Z,69.13
2023-02-17T06:12:49.529Z,69.48
2023-02-17T06:15:23.036Z,69.75
2023-02-17T06:17:56.252Z,69.86
2023-02-17T06:20:29.546Z,68.80
2023-02-17T06:23:02.858Z,69.83
2023-02-17T06:25:37.411Z,70.54
2023-02-17T06:28:10.505Z,70.50
2023-02-17T06:30:43.628Z,70.89
2023-02-17T06:33:16.852Z,70.09
2023-02-17T06:35:51.222Z,70.83
2023-02-17T06:38:24.369Z,71.34
2023-02-17T06:40:58.908Z,70.75
2023-02-17T06:43:32.206Z,70.36
2023-02-17T06:46:06.543Z,70.50
2023-02-17T06:48:40.053Z,71.53
2023-02-17T06:51:13.241Z,71.54
2023-02-17T06:53:46.527Z,71.70
2023-02-17T06:56:21.481Z,71.79
2023-02-17T06:58:54.606Z,71.97
2023-02-17T07:01:28.131Z,71.63
2023-02-17T07:04:01.237Z,73.17
2023-02-17T07:06:34.516Z,72.21
2023-02-17T07:09:07.744Z,72.44
2023-02-17T07:11:45.187Z,72.96
2023-02-17T07:14:18.368Z,72.73
2023-02-17T07:16:51.997Z,72.89
2023-02-17T07:19:25.121Z,72.97
2023-02-17T07:21:58.322Z,72.38
2023-02-17T07:24:31.527Z,72.63
2023-02-17T07:27:10.608Z,72.47
2023-02-17T07:29:43.971Z,72.77
2023-02-17T07:32:17.334Z,72.01
2023-02-17T07:34:50.497Z,72.47
2023-02-17T07:37:23.629Z,71.97
2023-02-17T07:39:57.280Z,72.34
2023-02-17T07:42:31.905Z,71.55
2023-02-17T07:45:05.954Z,72.27
2023-02-17T07:47:39.250Z,72.00
2023-02-17T07:50:12.826Z,71.79
2023-02-17T07:52:46.199Z,71.97
2023-02-17T07:55:19.610Z,72.97
2023-02-17T07:57:54.232Z,72.25
2023-02-17T08:00:27.814Z,71.91
2023-02-17T08:03:01.418Z,71.64
2023-02-17T08:05:34.533Z,72.11
2023-02-17T08:08:25.684Z,72.00
2023-02-17T08:11:22.046Z,70.43
2023-02-17T08:13:56.869Z,71.32
2023-02-17T08:16:30.116Z,70.58
2023-02-17T08:19:03.399Z,70.52
2023-02-17T08:21:36.725Z,69.55
2023-02-17T08:24:09.869Z,68.98
2023-02-17T08:26:43.403Z,69.19
2023-02-17T08:29:20.274Z,69.37
2023-02-17T08:31:54.881Z,69.31
2023-02-17T08:34:28.813Z,69.38
2023-02-17T08:37:02.363Z,69.79
2023-02-17T08:39:37.027Z,69.11
2023-02-17T08:42:11.401Z,69.07
2023-02-17T08:44:46.299Z,69.56
2023-02-17T08:47:19.681Z,69.70
2023-02-17T08:49:52.852Z,69.93
2023-02-17T08:52:26.112Z,70.50
2023-02-17T08:54:59.639Z,70.62
2023-02-17T08:57:32.927Z,70.66
2023-02-17T09:00:10.272Z,69.67
2023-02-17T09:02:45.144Z,70.18
2023-02-17T09:05:18.310Z,70.32
2023-02-17T09:07:51.415Z,70.13
2023-02-17T09:10:24.742Z,70.10
2023-02-17T09:12:58.406Z,70.24
2023-02-17T09:15:33.324Z,71.47
2023-02-17T09:18:06.599Z,71.22
2023-02-17T09:20:40.268Z,71.84
2023-02-17T09:23:13.480Z,71.99
2023-02-17T09:25:47.472Z,72.15
2023-02-17T09:28:20.656Z,72.17
2023-02-17T09:30:55.487Z,72.08
2023-02-17T09:33:28.685Z,72.81
2023-02-17T09:36:02.089Z,73.81
2023-02-17T09:38:35.333Z,72.78
2023-02-17T09:41:19.013Z,73.23
2023-02-17T09:43:53.133Z,73.31
2023-02-17T09:46:31.650Z,73.52
2023-02-17T09:49:10.223Z,74.42
2023-02-17T09:51:46.977Z,76.61
2023-02-17T09:54:29.061Z,77.21
2023-02-17T09:57:04.986Z,77.58
2023-02-17T09:59:43.354Z,77.79
2023-02-17T10:02:26.930Z,76.98
2023-02-17T10:05:08.102Z,78.15
2023-02-17T10:07:47.334Z,77.62
2023-02-17T10:10:23.982Z,78.16
2023-02-17T10:12:59.691Z,77.41
2023-02-17T10:15:40.372Z,78.37
2023-02-17T10:18:21.230Z,78.15
2023-02-17T10:21:01.853Z,78.46
2023-02-17T10:23:36.341Z,78.09
2023-02-17T10:26:23.916Z,77.53
2023-02-17T10:29:05.783Z,76.74
2023-02-17T10:31:46.595Z,77.63
2023-02-17T10:34:35.665Z,76.80
2023-02-17T10:37:18.533Z,76.70
2023-02-17T10:39:54.409Z,75.15
2023-02-17T10:42:31.496Z,75.59
2023-02-17T10:45:12.290Z,76.86
2023-02-17T10:47:45.886Z,77.25
2023-02-17T10:50:23.907Z,75.52
2023-02-17T10:52:57.875Z,76.38
2023-02-17T10:55:38.069Z,76.01
2023-02-17T10:58:18.286Z,75.94
2023-02-17T11:00:57.459Z,75.35
2023-02-17T11:03:32.445Z,75.48
2023-02-17T11:06:17.937Z,74.14
2023-02-17T11:08:53.938Z,75.34
2023-02-17T11:11:30.522Z,75.20
2023-02-17T11:14:13.786Z,75.75
2023-02-17T11:16:53.811Z,75.10
2023-02-17T11:19:30.679Z,74.49
2023-02-17T11:22:23.416Z,75.35
2023-02-17T11:25:00.714Z,75.34
2023-02-17T11:27:34.062Z,75.77
2023-02-17T11:30:15.157Z,74.60
2023-02-17T11:32:48.664Z,74.35
2023-02-17T11:35:26.335Z,74.28
2023-02-17T11:38:10.865Z,73.82
2023-02-17T11:40:55.767Z,73.10
2023-02-17T11:43:29.722Z,73.36
2023-02-17T11:46:21.202Z,73.63
2023-02-17T11:50:00.640Z,74.70
2023-02-17T11:52:56.142Z,75.62
2023-02-17T11:55:42.602Z,75.50
2023-02-17T11:58:29.945Z,74.65
2023-02-17T12:01:12.763Z,74.84
2023-02-17T12:04:32.028Z,75.04
2023-02-17T12:07:29.356Z,78.02
2023-02-17T12:10:11.210Z,78.54
2023-02-17T12:13:02.305Z,80.53
2023-02-17T12:15:57.079Z,79.95
2023-02-17T12:18:49.443Z,81.12
2023-02-17T12:21:36.102Z,83.52
2023-02-17T12:24:28.398Z,83.91
2023-02-17T12:27:12.023Z,84.71
2023-02-17T12:30:18.773Z,85.02
2023-02-17T12:33:16.916Z,85.17
2023-02-17T12:35:54.011Z,85.13
2023-02-17T12:38:32.377Z,83.35
2023-02-17T12:41:10.757Z,84.43
2023-02-17T12:43:49.419Z,83.78
2023-02-17T12:46:28.747Z,84.36
2023-02-17T12:49:09.736Z,83.97
2023-02-17T12:51:48.818Z,83.84
2023-02-17T12:54:28.197Z,83.02
2023-02-17T12:57:14.955Z,82.21
2023-02-17T12:59:50.335Z,82.49
2023-02-17T13:02:26.912Z,83.63
2023-02-17T13:05:05.997Z,81.88
2023-02-17T13:07:45.859Z,82.07
2023-02-17T13:10:32.522Z,81.31
2023-02-17T13:13:12.158Z,80.50
2023-02-17T13:15:48.011Z,80.23
2023-02-17T13:18:33.146Z,80.40
2023-02-17T13:21:20.350Z,80.61
2023-02-17T13:24:02.194Z,80.57
2023-02-17T13:26:37.409Z,80.19
2023-02-17T13:29:34.071Z,79.88
2023-02-17T13:32:10.677Z,80.34
2023-02-17T13:34:46.945Z,79.87
2023-02-17T13:37:28.307Z,79.94
2023-02-17T13:40:02.979Z,81.71
2023-02-17T13:42:40.763Z,80.34
2023-02-17T13:45:25.736Z,80.25
2023-02-17T13:48:01.176Z,80.03
2023-02-17T13:50:38.708Z,79.21
2023-02-17T13:53:30.586Z,79.71
2023-02-17T13:56:07.042Z,80.73
2023-02-17T13:58:43.174Z,78.80
2023-02-17T14:01:19.307Z,79.60
2023-02-17T14:04:00.149Z,79.28
2023-02-17T14:06:38.191Z,79.05
2023-02-17T14:09:27.200Z,79.34
2023-02-17T14:12:04.592Z,79.34
2023-02-17T14:14:40.110Z,78.81
2023-02-17T14:17:32.733Z,78.09
2023-02-17T14:20:07.886Z,78.49
2023-02-17T14:22:41.844Z,78.93
2023-02-17T14:25:29.637Z,78.67
2023-02-17T14:28:03.122Z,77.90
2023-02-17T14:30:38.704Z,78.26
2023-02-17T14:33:23.564Z,78.74
2023-02-17T14:36:00.284Z,78.37
2023-02-17T14:38:37.730Z,79.31
2023-02-17T14:41:12.322Z,79.65
2023-02-17T14:43:45.551Z,79.89
2023-02-17T14:46:19.937Z,78.19
2023-02-17T14:48:55.396Z,77.65
2023-02-17T14:51:36.089Z,76.90
2023-02-17T14:54:16.263Z,77.52
2023-02-17T14:57:04.858Z,76.52
2023-02-17T14:59:38.070Z,77.12
2023-02-17T15:02:16.061Z,77.51
2023-02-17T15:04:49.307Z,77.46
2023-02-17T15:07:22.503Z,77.83
2023-02-17T15:09:56.492Z,77.74
2023-02-17T15:12:31.177Z,78.48
2023-02-17T15:15:04.814Z,77.90
2023-02-17T15:17:37.952Z,77.64
2023-02-17T15:20:12.969Z,78.15
2023-02-17T15:22:46.327Z,78.20
2023-02-17T15:25:23.090Z,77.45
2023-02-17T15:27:57.734Z,77.81
2023-02-17T15:30:31.324Z,77.75
2023-02-17T15:33:04.749Z,77.01
2023-02-17T15:35:38.188Z,77.06
2023-02-17T15:38:13.879Z,76.70
2023-02-17T15:40:47.259Z,77.41
2023-02-17T15:43:24.389Z,77.53
2023-02-17T15:45:57.789Z,77.57
2023-02-17T15:48:31.976Z,77.20
2023-02-17T15:51:06.605Z,77.42
2023-02-17T15:53:39.852Z,78.08
2023-02-17T15:56:20.154Z,77.96
2023-02-17T15:58:55.625Z,77.57
2023-02-17T16:01:31.045Z,78.26
2023-02-17T16:04:04.917Z,78.67
2023-02-17T16:06:38.908Z,77.83
2023-02-17T16:09:12.573Z,78.08
2023-02-17T16:11:50.992Z,78.72
2023-02-17T16:14:35.092Z,79.29
2023-02-17T16:17:15.386Z,78.23
2023-02-17T16:19:48.991Z,79.56
2023-02-17T16:22:22.197Z,78.41
2023-02-17T16:24:55.379Z,78.92
2023-02-17T16:27:28.648Z,78.96
2023-02-17T16:30:03.873Z,78.67
2023-02-17T16:32:37.700Z,79.11
2023-02-17T16:35:16.280Z,79.57
2023-02-17T16:37:56.030Z,79.89
2023-02-17T16:40:32.064Z,79.84
2023-02-17T16:43:05.901Z,80.56
2023-02-17T16:45:51.594Z,80.72
2023-02-17T16:48:26.739Z,79.93
2023-02-17T16:51:00.150Z,80.88
2023-02-17T16:53:33.318Z,79.98
2023-02-17T16:56:18.025Z,79.54
2023-02-17T16:58:51.587Z,80.09
2023-02-17T17:01:26.195Z,79.56
2023-02-17T17:03:59.393Z,79.99
2023-02-17T17:06:32.695Z,79.30
2023-02-17T17:09:07.062Z,79.41
2023-02-17T17:11:40.679Z,79.86
2023-02-17T17:14:14.883Z,80.01
2023-02-17T17:16:55.812Z,79.52
2023-02-17T17:19:29.142Z,80.05
2023-02-17T17:22:04.227Z,80.11
2023-02-17T17:24:38.084Z,79.34
2023-02-17T17:27:12.942Z,79.07
2023-02-17T17:29:46.206Z,80.21
2023-02-17T17:32:20.830Z,79.87
2023-02-17T17:34:55.128Z,78.59
2023-02-17T17:37:28.608Z,79.34
2023-02-17T17:40:01.807Z,78.60
2023-02-17T17:42:37.734Z,79.23
2023-02-17T17:45:11.481Z,78.77
2023-02-17T17:47:46.544Z,79.04
2023-02-17T17:50:23.548Z,79.59
2023-02-17T17:52:56.841Z,78.93
2023-02-17T17:55:30.121Z,79.76
2023-02-17T17:58:03.683Z,78.91
2023-02-17T18:00:37.280Z,79.85
2023-02-17T18:03:11.862Z,77.77
2023-02-17T18:05:45.386Z,78.31
2023-02-17T18:08:20.535Z,78.36
2023-02-17T18:10:53.874Z,78.49
2023-02-17T18:13:27.906Z,78.69
2023-02-17T18:16:01.589Z,78.37
2023-02-17T18:18:37.028Z,78.39
2023-02-17T18:21:10.366Z,78.22
2023-02-17T18:23:43.777Z,78.75
2023-02-17T18:26:18.602Z,79.31
2023-02-17T18:28:51.880Z,78.85
2023-02-17T18:31:28.644Z,79.09
2023-02-17T18:34:04.426Z,78.81
2023-02-17T18:36:37.953Z,79.16
2023-02-17T18:39:11.104Z,79.18
2023-02-17T18:41:45.702Z,78.28
2023-02-17T18:44:19.147Z,78.62
2023-02-17T18:46:52.599Z,78.04
2023-02-17T18:49:27.872Z,77.87
2023-02-17T18:52:01.181Z,78.38
2023-02-17T18:54:34.501Z,78.85
2023-02-17T18:57:07.722Z,78.78
2023-02-17T18:59:40.920Z,78.29
2023-02-17T19:02:14.238Z,79.36
2023-02-17T19:04:49.328Z,79.01
2023-02-17T19:07:23.477Z,78.75
2023-02-17T19:09:56.736Z,78.93
2023-02-17T19:12:30.042Z,79.25
2023-02-17T19:15:03.655Z,80.94
2023-02-17T19:17:36.826Z,80.54
2023-02-17T19:20:13.090Z,80.76
2023-02-17T19:22:46.237Z,80.73
2023-02-17T19:25:19.744Z,81.61
2023-02-17T19:27:52.976Z,81.72
2023-02-17T19:30:26.213Z,81.68
2023-02-17T19:32:59.438Z,82.38
2023-02-17T19:35:34.047Z,82.99
2023-02-17T19:38:07.467Z,82.19
2023-02-17T19:40:40.842Z,82.66
2023-02-17T19:43:14.244Z,84.63
2023-02-17T19:45:47.726Z,86.58
2023-02-17T19:48:24.207Z,86.90
2023-02-17T19:51:03.576Z,87.43
2023-02-17T19:53:37.166Z,88.53
2023-02-17T19:56:12.462Z,90.80
2023-02-17T19:58:47.923Z,91.03
2023-02-17T20:01:24.807Z,92.17
2023-02-17T20:03:59.649Z,94.95
2023-02-17T20:06:37.441Z,95.11
2023-02-17T20:09:14.789Z,96.71
2023-02-17T20:11:52.897Z,97.54
2023-02-17T20:14:26.318Z,97.88
2023-02-17T20:17:00.750Z,98.13
2023-02-17T20:19:37.680Z,99.97
2023-02-17T20:22:12.345Z,99.11
2023-02-17T20:24:45.600Z,98.22
2023-02-17T20:27:18.966Z,98.90
2023-02-17T20:29:52.165Z,99.10
2023-02-17T20:32:25.515Z,98.86
2023-02-17T20:34:58.796Z,98.85
2023-02-17T20:37:33.330Z,98.08
2023-02-17T20:40:08.355Z,97.57
2023-02-17T20:42:41.526Z,97.71
2023-02-17T20:45:14.797Z,95.55
2023-02-17T20:47:48.060Z,95.91
2023-02-17T20:50:23.634Z,97.12
2023-02-17T20:52:58.201Z,96.91
2023-02-17T20:55:31.864Z,96.92
2023-02-17T20:58:06.647Z,97.22
2023-02-17T21:00:40.758Z,97.93
2023-02-17T21:03:14.064Z,97.99
2023-02-17T21:05:47.360Z,97.15
2023-02-17T21:08:21.996Z,97.03
2023-02-17T21:10:55.147Z,95.02
2023-02-17T21:13:29.672Z,94.47
2023-02-17T21:16:03.267Z,92.96
2023-02-17T21:18:38.057Z,92.03
2023-02-17T21:21:11.496Z,91.61
2023-02-17T21:23:46.190Z,90.78
2023-02-17T21:26:19.525Z,91.25
2023-02-17T21:28:52.793Z,92.21
2023-02-17T21:31:28.921Z,92.11
2023-02-17T21:34:02.256Z,92.79
2023-02-17T21:36:36.124Z,92.10
2023-02-17T21:39:11.619Z,91.34
2023-02-17T21:41:45.031Z,90.41
2023-02-17T21:44:35.829Z,90.73
2023-02-17T21:47:09.139Z,90.30
2023-02-17T21:49:42.486Z,90.47
2023-02-17T21:52:16.304Z,89.83
2023-02-17T21:54:50.845Z,90.24
2023-02-17T21:57:24.111Z,90.48
2023-02-17T21:59:57.320Z,90.39
2023-02-17T22:02:30.594Z,90.80
2023-02-17T22:05:04.071Z,91.21
2023-02-17T22:07:37.865Z,91.26
2023-02-17T22:10:12.978Z,91.48
2023-02-17T22:12:46.154Z,92.03
2023-02-17T22:15:19.621Z,92.13
2023-02-17T22:17:52.849Z,92.74
2023-02-17T22:20:26.825Z,92.99
2023-02-17T22:23:00.086Z,93.34
2023-02-17T22:25:34.705Z,92.76
2023-02-17T22:28:10.305Z,93.36
2023-02-17T22:30:44.425Z,94.10
2023-02-17T22:33:17.770Z,94.27
2023-02-17T22:35:59.428Z,93.40
2023-02-17T22:38:33.022Z,92.98
2023-02-17T22:41:09.200Z,91.38
2023-02-17T22:43:44.045Z,92.09
2023-02-17T22:46:19.959Z,91.67
2023-02-17T22:48:54.493Z,91.54
2023-02-17T22:51:30.697Z,91.60
2023-02-17T22:54:04.751Z,90.50
2023-02-17T22:56:39.330Z,89.82
2023-02-17T22:59:12.643Z,89.53
2023-02-17T23:01:46.322Z,89.70
2023-02-17T23:04:19.831Z,89.09
2023-02-17T23:06:53.126Z,88.34
2023-02-17T23:09:26.429Z,88.66
2023-02-17T23:12:01.009Z,88.52
2023-02-17T23:14:36.974Z,89.23
2023-02-17T23:17:13.101Z,89.51
2023-02-17T23:19:46.463Z,90.07
2023-02-17T23:22:20.368Z,90.10
2023-02-17T23:24:53.614Z,90.11
2023-02-17T23:27:28.272Z,90.59
2023-02-17T23:30:01.526Z,89.83
2023-02-17T23:32:34.841Z,89.72
2023-02-17T23:35:08.484Z,89.85
2023-02-17T23:37:41.897Z,90.50
2023-02-17T23:40:16.254Z,90.50
2023-02-17T23:42:50.853Z,90.18
2023-02-17T23:45:24.076Z,90.13
2023-02-17T23:47:57.278Z,90.92
2023-02-17T23:50:30.456Z,90.01
2023-02-17T23:53:03.637Z,91.23
2023-02-17T23:55:36.946Z,90.01
2023-02-17T23:58:11.554Z,90.41
